sensor_id;sensor_type;location;lat;lon;timestamp;pressure;altitude;pressure_sealevel;temperature;humidity
60355;BME280;46198;51.464;-0.066;2024-03-07T00:00:13;102316.16;;;5.43;100.00
60355;BME280;46198;51.464;-0.066;2024-03-07T00:02:47;102311.34;;;5.46;100.00
60355;BME280;46198;51.464;-0.066;2024-03-07T00:05:17;102310.88;;;5.51;100.00
60355;BME280;46198;51.464;-0.066;2024-03-07T00:07:47;102312.69;;;5.60;100.00
60355;BME280;46198;51.464;-0.066;2024-03-07T00:10:16;102305.97;;;5.64;100.00
60355;BME280;46198;51.464;-0.066;2024-03-07T00:12:44;102313.06;;;5.65;100.00
60355;BME280;46198;51.464;-0.066;2024-03-07T00:15:15;102314.75;;;5.66;100.00
60355;BME280;46198;51.464;-0.066;2024-03-07T00:17:45;102309.63;;;5.73;100.00
60355;BME280;46198;51.464;-0.066;2024-03-07T00:20:13;102313.88;;;5.75;100.00
60355;BME280;46198;51.464;-0.066;2024-03-07T00:22:43;102310.16;;;5.76;100.00
60355;BME280;46198;51.464;-0.066;2024-03-07T00:25:13;102303.16;;;5.84;100.00
60355;BME280;46198;51.464;-0.066;2024-03-07T00:27:46;102306.84;;;5.83;100.00
60355;BME280;46198;51.464;-0.066;2024-03-07T00:30:15;102304.53;;;5.88;100.00
60355;BME280;46198;51.464;-0.066;2024-03-07T00:32:46;102302.38;;;5.91;100.00
60355;BME280;46198;51.464;-0.066;2024-03-07T00:35:15;102293.88;;;5.96;100.00
60355;BME280;46198;51.464;-0.066;2024-03-07T00:37:44;102298.97;;;5.99;100.00
60355;BME280;46198;51.464;-0.066;2024-03-07T00:40:13;102311.59;;;5.98;100.00
60355;BME280;46198;51.464;-0.066;2024-03-07T00:42:44;102305.50;;;5.96;100.00
60355;BME280;46198;51.464;-0.066;2024-03-07T00:45:12;102304.34;;;5.99;100.00
60355;BME280;46198;51.464;-0.066;2024-03-07T00:47:43;102302.13;;;5.94;100.00
60355;BME280;46198;51.464;-0.066;2024-03-07T00:50:11;102305.38;;;5.98;100.00
60355;BME280;46198;51.464;-0.066;2024-03-07T00:52:40;102307.88;;;5.99;100.00
60355;BME280;46198;51.464;-0.066;2024-03-07T00:55:08;102302.25;;;5.93;100.00
60355;BME280;46198;51.464;-0.066;2024-03-07T00:57:38;102303.19;;;6.02;100.00
60355;BME280;46198;51.464;-0.066;2024-03-07T01:00:07;102299.66;;;6.01;100.00
60355;BME280;46198;51.464;-0.066;2024-03-07T01:02:41;102298.97;;;5.99;100.00
60355;BME280;46198;51.464;-0.066;2024-03-07T01:05:11;102298.25;;;5.97;100.00
60355;BME280;46198;51.464;-0.066;2024-03-07T01:07:41;102298.50;;;6.04;100.00
60355;BME280;46198;51.464;-0.066;2024-03-07T01:10:10;102301.66;;;5.99;100.00
60355;BME280;46198;51.464;-0.066;2024-03-07T01:12:38;102300.50;;;6.02;100.00
60355;BME280;46198;51.464;-0.066;2024-03-07T01:15:07;102299.97;;;5.98;100.00
60355;BME280;46198;51.464;-0.066;2024-03-07T01:17:37;102295.63;;;6.05;100.00
60355;BME280;46198;51.464;-0.066;2024-03-07T01:20:06;102298.66;;;6.02;100.00
60355;BME280;46198;51.464;-0.066;2024-03-07T01:22:36;102292.28;;;6.03;100.00
60355;BME280;46198;51.464;-0.066;2024-03-07T01:25:04;102286.19;;;6.01;100.00
60355;BME280;46198;51.464;-0.066;2024-03-07T01:27:33;102288.56;;;6.04;100.00
60355;BME280;46198;51.464;-0.066;2024-03-07T01:30:04;102290.94;;;6.07;100.00
60355;BME280;46198;51.464;-0.066;2024-03-07T01:32:35;102288.41;;;6.06;100.00
60355;BME280;46198;51.464;-0.066;2024-03-07T01:35:03;102281.50;;;6.03;100.00
60355;BME280;46198;51.464;-0.066;2024-03-07T01:37:33;102287.47;;;5.97;100.00
60355;BME280;46198;51.464;-0.066;2024-03-07T01:40:02;102281.88;;;6.08;100.00
60355;BME280;46198;51.464;-0.066;2024-03-07T01:42:30;102280.78;;;6.01;100.00
60355;BME280;46198;51.464;-0.066;2024-03-07T01:44:58;102277.94;;;6.03;100.00
60355;BME280;46198;51.464;-0.066;2024-03-07T01:47:28;102273.94;;;6.07;100.00
60355;BME280;46198;51.464;-0.066;2024-03-07T01:49:57;102280.66;;;6.03;100.00
60355;BME280;46198;51.464;-0.066;2024-03-07T01:52:26;102277.06;;;6.02;100.00
60355;BME280;46198;51.464;-0.066;2024-03-07T01:54:54;102270.13;;;5.99;100.00
60355;BME280;46198;51.464;-0.066;2024-03-07T01:57:23;102268.66;;;6.05;100.00
60355;BME280;46198;51.464;-0.066;2024-03-07T01:59:51;102264.69;;;6.09;100.00
60355;BME280;46198;51.464;-0.066;2024-03-07T02:02:20;102262.69;;;6.11;100.00
60355;BME280;46198;51.464;-0.066;2024-03-07T02:04:49;102258.97;;;6.12;100.00
60355;BME280;46198;51.464;-0.066;2024-03-07T02:07:18;102249.34;;;6.10;100.00
60355;BME280;46198;51.464;-0.066;2024-03-07T02:09:46;102249.59;;;6.16;100.00
60355;BME280;46198;51.464;-0.066;2024-03-07T02:12:14;102260.19;;;6.18;100.00
60355;BME280;46198;51.464;-0.066;2024-03-07T02:14:43;102247.94;;;6.24;100.00
60355;BME280;46198;51.464;-0.066;2024-03-07T02:17:11;102257.19;;;6.21;100.00
60355;BME280;46198;51.464;-0.066;2024-03-07T02:19:38;102261.09;;;6.27;100.00
60355;BME280;46198;51.464;-0.066;2024-03-07T02:22:07;102254.41;;;6.31;100.00
60355;BME280;46198;51.464;-0.066;2024-03-07T02:24:36;102253.72;;;6.29;100.00
60355;BME280;46198;51.464;-0.066;2024-03-07T02:27:04;102245.31;;;6.32;100.00
60355;BME280;46198;51.464;-0.066;2024-03-07T02:29:32;102246.31;;;6.31;100.00
60355;BME280;46198;51.464;-0.066;2024-03-07T02:32:00;102241.63;;;6.33;100.00
60355;BME280;46198;51.464;-0.066;2024-03-07T02:34:29;102244.97;;;6.35;100.00
60355;BME280;46198;51.464;-0.066;2024-03-07T02:36:57;102248.38;;;6.37;100.00
60355;BME280;46198;51.464;-0.066;2024-03-07T02:39:26;102252.59;;;6.39;100.00
60355;BME280;46198;51.464;-0.066;2024-03-07T02:41:55;102251.78;;;6.39;100.00
60355;BME280;46198;51.464;-0.066;2024-03-07T02:44:23;102245.34;;;6.40;100.00
60355;BME280;46198;51.464;-0.066;2024-03-07T02:46:52;102236.28;;;6.41;100.00
60355;BME280;46198;51.464;-0.066;2024-03-07T02:49:21;102242.06;;;6.46;100.00
60355;BME280;46198;51.464;-0.066;2024-03-07T02:51:49;102234.94;;;6.45;100.00
60355;BME280;46198;51.464;-0.066;2024-03-07T02:54:17;102230.94;;;6.49;100.00
60355;BME280;46198;51.464;-0.066;2024-03-07T02:56:47;102232.94;;;6.47;100.00
60355;BME280;46198;51.464;-0.066;2024-03-07T02:59:15;102231.94;;;6.48;100.00
60355;BME280;46198;51.464;-0.066;2024-03-07T03:01:43;102228.44;;;6.56;100.00
60355;BME280;46198;51.464;-0.066;2024-03-07T03:04:12;102226.56;;;6.56;100.00
60355;BME280;46198;51.464;-0.066;2024-03-07T03:06:41;102221.56;;;6.61;100.00
60355;BME280;46198;51.464;-0.066;2024-03-07T03:09:09;102218.09;;;6.51;100.00
60355;BME280;46198;51.464;-0.066;2024-03-07T03:11:44;102220.03;;;6.59;100.00
60355;BME280;46198;51.464;-0.066;2024-03-07T03:14:14;102220.34;;;6.56;100.00
60355;BME280;46198;51.464;-0.066;2024-03-07T03:16:42;102212.09;;;6.57;100.00
60355;BME280;46198;51.464;-0.066;2024-03-07T03:19:15;102216.84;;;6.63;100.00
60355;BME280;46198;51.464;-0.066;2024-03-07T03:21:43;102207.72;;;6.64;100.00
60355;BME280;46198;51.464;-0.066;2024-03-07T03:24:11;102207.41;;;6.68;100.00
60355;BME280;46198;51.464;-0.066;2024-03-07T03:26:39;102202.34;;;6.64;100.00
60355;BME280;46198;51.464;-0.066;2024-03-07T03:29:09;102204.38;;;6.62;100.00
60355;BME280;46198;51.464;-0.066;2024-03-07T03:31:40;102206.69;;;6.57;100.00
60355;BME280;46198;51.464;-0.066;2024-03-07T03:34:08;102198.09;;;6.62;100.00
60355;BME280;46198;51.464;-0.066;2024-03-07T03:36:37;102196.94;;;6.64;100.00
60355;BME280;46198;51.464;-0.066;2024-03-07T03:39:05;102198.59;;;6.57;100.00
60355;BME280;46198;51.464;-0.066;2024-03-07T03:41:38;102201.78;;;6.53;100.00
60355;BME280;46198;51.464;-0.066;2024-03-07T03:44:06;102198.44;;;6.59;100.00
60355;BME280;46198;51.464;-0.066;2024-03-07T03:46:34;102196.91;;;6.56;100.00
60355;BME280;46198;51.464;-0.066;2024-03-07T03:49:04;102193.53;;;6.54;100.00
60355;BME280;46198;51.464;-0.066;2024-03-07T03:51:32;102192.50;;;6.55;100.00
60355;BME280;46198;51.464;-0.066;2024-03-07T03:54:01;102191.44;;;6.48;100.00
60355;BME280;46198;51.464;-0.066;2024-03-07T03:56:29;102188.38;;;6.43;100.00
60355;BME280;46198;51.464;-0.066;2024-03-07T03:59:01;102186.06;;;6.48;100.00
60355;BME280;46198;51.464;-0.066;2024-03-07T04:01:31;102188.09;;;6.46;100.00
60355;BME280;46198;51.464;-0.066;2024-03-07T04:03:59;102190.78;;;6.46;100.00
60355;BME280;46198;51.464;-0.066;2024-03-07T04:06:29;102199.72;;;6.47;100.00
60355;BME280;46198;51.464;-0.066;2024-03-07T04:08:59;102202.03;;;6.41;100.00
60355;BME280;46198;51.464;-0.066;2024-03-07T04:11:27;102199.13;;;6.35;100.00
60355;BME280;46198;51.464;-0.066;2024-03-07T04:13:55;102186.00;;;6.40;100.00
60355;BME280;46198;51.464;-0.066;2024-03-07T04:16:24;102194.75;;;6.34;100.00
60355;BME280;46198;51.464;-0.066;2024-03-07T04:18:52;102200.50;;;6.39;100.00
60355;BME280;46198;51.464;-0.066;2024-03-07T04:21:20;102186.38;;;6.45;100.00
60355;BME280;46198;51.464;-0.066;2024-03-07T04:23:50;102193.47;;;6.46;100.00
60355;BME280;46198;51.464;-0.066;2024-03-07T04:26:18;102188.94;;;6.47;100.00
60355;BME280;46198;51.464;-0.066;2024-03-07T04:28:46;102185.06;;;6.49;100.00
60355;BME280;46198;51.464;-0.066;2024-03-07T04:31:15;102191.31;;;6.50;100.00
60355;BME280;46198;51.464;-0.066;2024-03-07T04:33:43;102185.72;;;6.51;100.00
60355;BME280;46198;51.464;-0.066;2024-03-07T04:36:13;102193.63;;;6.44;100.00
60355;BME280;46198;51.464;-0.066;2024-03-07T04:38:41;102190.28;;;6.51;100.00
60355;BME280;46198;51.464;-0.066;2024-03-07T04:41:13;102187.06;;;6.47;100.00
60355;BME280;46198;51.464;-0.066;2024-03-07T04:43:42;102186.41;;;6.53;100.00
60355;BME280;46198;51.464;-0.066;2024-03-07T04:46:11;102183.72;;;6.53;100.00
60355;BME280;46198;51.464;-0.066;2024-03-07T04:48:39;102189.13;;;6.53;100.00
60355;BME280;46198;51.464;-0.066;2024-03-07T04:51:08;102190.66;;;6.56;100.00
60355;BME280;46198;51.464;-0.066;2024-03-07T04:56:56;102186.66;;;6.60;100.00
60355;BME280;46198;51.464;-0.066;2024-03-07T04:59:24;102188.13;;;6.54;100.00
60355;BME280;46198;51.464;-0.066;2024-03-07T05:01:52;102191.88;;;6.61;100.00
60355;BME280;46198;51.464;-0.066;2024-03-07T05:04:20;102186.47;;;6.61;100.00
60355;BME280;46198;51.464;-0.066;2024-03-07T05:06:51;102184.47;;;6.63;100.00
60355;BME280;46198;51.464;-0.066;2024-03-07T05:09:19;102185.31;;;6.64;100.00
60355;BME280;46198;51.464;-0.066;2024-03-07T05:11:53;102187.00;;;6.65;100.00
60355;BME280;46198;51.464;-0.066;2024-03-07T05:14:23;102180.09;;;6.62;100.00
60355;BME280;46198;51.464;-0.066;2024-03-07T05:16:52;102182.78;;;6.62;100.00
60355;BME280;46198;51.464;-0.066;2024-03-07T05:19:32;102172.31;;;6.68;100.00
60355;BME280;46198;51.464;-0.066;2024-03-07T05:25:44;102178.41;;;6.70;100.00
60355;BME280;46198;51.464;-0.066;2024-03-07T05:28:12;102182.66;;;6.72;100.00
60355;BME280;46198;51.464;-0.066;2024-03-07T05:30:42;102176.56;;;6.70;100.00
60355;BME280;46198;51.464;-0.066;2024-03-07T05:33:10;102172.69;;;6.73;100.00
60355;BME280;46198;51.464;-0.066;2024-03-07T05:35:38;102172.16;;;6.69;100.00
60355;BME280;46198;51.464;-0.066;2024-03-07T05:38:07;102176.41;;;6.72;100.00
60355;BME280;46198;51.464;-0.066;2024-03-07T05:40:38;102168.44;;;6.70;100.00
60355;BME280;46198;51.464;-0.066;2024-03-07T05:43:06;102175.25;;;6.74;100.00
60355;BME280;46198;51.464;-0.066;2024-03-07T05:45:35;102173.00;;;6.70;100.00
60355;BME280;46198;51.464;-0.066;2024-03-07T05:48:14;102173.84;;;6.70;100.00
60355;BME280;46198;51.464;-0.066;2024-03-07T05:50:44;102170.84;;;6.73;100.00
60355;BME280;46198;51.464;-0.066;2024-03-07T05:53:13;102169.31;;;6.71;100.00
60355;BME280;46198;51.464;-0.066;2024-03-07T05:55:42;102178.41;;;6.70;100.00
60355;BME280;46198;51.464;-0.066;2024-03-07T05:58:10;102174.72;;;6.71;100.00
60355;BME280;46198;51.464;-0.066;2024-03-07T06:00:39;102165.59;;;6.72;100.00
60355;BME280;46198;51.464;-0.066;2024-03-07T06:03:08;102172.03;;;6.71;100.00
60355;BME280;46198;51.464;-0.066;2024-03-07T06:05:38;102169.63;;;6.68;100.00
60355;BME280;46198;51.464;-0.066;2024-03-07T06:08:10;102162.88;;;6.63;100.00
60355;BME280;46198;51.464;-0.066;2024-03-07T06:10:40;102162.34;;;6.60;100.00
60355;BME280;46198;51.464;-0.066;2024-03-07T06:13:08;102170.09;;;6.55;100.00
60355;BME280;46198;51.464;-0.066;2024-03-07T06:15:38;102166.53;;;6.54;100.00
60355;BME280;46198;51.464;-0.066;2024-03-07T06:18:06;102168.19;;;6.47;100.00
60355;BME280;46198;51.464;-0.066;2024-03-07T06:20:39;102166.19;;;6.49;100.00
60355;BME280;46198;51.464;-0.066;2024-03-07T06:23:08;102161.25;;;6.44;100.00
60355;BME280;46198;51.464;-0.066;2024-03-07T06:25:39;102164.16;;;6.51;100.00
60355;BME280;46198;51.464;-0.066;2024-03-07T06:28:14;102171.94;;;6.54;100.00
60355;BME280;46198;51.464;-0.066;2024-03-07T06:30:44;102174.63;;;6.54;100.00
60355;BME280;46198;51.464;-0.066;2024-03-07T06:33:14;102174.47;;;6.56;100.00
60355;BME280;46198;51.464;-0.066;2024-03-07T06:35:45;102173.47;;;6.57;100.00
60355;BME280;46198;51.464;-0.066;2024-03-07T06:38:14;102179.16;;;6.54;100.00
60355;BME280;46198;51.464;-0.066;2024-03-07T06:40:42;102182.19;;;6.51;100.00
60355;BME280;46198;51.464;-0.066;2024-03-07T06:43:10;102177.50;;;6.53;100.00
60355;BME280;46198;51.464;-0.066;2024-03-07T06:45:39;102188.09;;;6.46;100.00
60355;BME280;46198;51.464;-0.066;2024-03-07T06:48:08;102177.28;;;6.46;100.00
60355;BME280;46198;51.464;-0.066;2024-03-07T06:50:37;102173.91;;;6.44;100.00
60355;BME280;46198;51.464;-0.066;2024-03-07T06:53:07;102179.13;;;6.46;100.00
60355;BME280;46198;51.464;-0.066;2024-03-07T06:55:36;102176.97;;;6.49;100.00
60355;BME280;46198;51.464;-0.066;2024-03-07T06:58:07;102166.50;;;6.46;100.00
60355;BME280;46198;51.464;-0.066;2024-03-07T07:00:37;102171.25;;;6.52;100.00
60355;BME280;46198;51.464;-0.066;2024-03-07T07:03:07;102171.03;;;6.46;100.00
60355;BME280;46198;51.464;-0.066;2024-03-07T07:05:37;102171.91;;;6.46;100.00
60355;BME280;46198;51.464;-0.066;2024-03-07T07:08:07;102166.19;;;6.49;100.00
60355;BME280;46198;51.464;-0.066;2024-03-07T07:10:35;102173.25;;;6.50;100.00
60355;BME280;46198;51.464;-0.066;2024-03-07T07:13:03;102171.72;;;6.48;100.00
60355;BME280;46198;51.464;-0.066;2024-03-07T07:15:32;102171.56;;;6.49;100.00
60355;BME280;46198;51.464;-0.066;2024-03-07T07:18:01;102166.31;;;6.48;100.00
60355;BME280;46198;51.464;-0.066;2024-03-07T07:20:30;102172.56;;;6.48;100.00
60355;BME280;46198;51.464;-0.066;2024-03-07T07:23:01;102171.56;;;6.49;100.00
60355;BME280;46198;51.464;-0.066;2024-03-07T07:25:32;102173.25;;;6.50;100.00
60355;BME280;46198;51.464;-0.066;2024-03-07T07:28:02;102171.56;;;6.49;100.00
60355;BME280;46198;51.464;-0.066;2024-03-07T07:30:35;102165.31;;;6.49;100.00
60355;BME280;46198;51.464;-0.066;2024-03-07T07:33:03;102169.06;;;6.56;100.00
60355;BME280;46198;51.464;-0.066;2024-03-07T07:35:32;102162.13;;;6.53;100.00
60355;BME280;46198;51.464;-0.066;2024-03-07T07:38:01;102160.66;;;6.59;100.00
60355;BME280;46198;51.464;-0.066;2024-03-07T07:40:31;102167.44;;;6.63;100.00
60355;BME280;46198;51.464;-0.066;2024-03-07T07:43:00;102158.81;;;6.68;100.00
60355;BME280;46198;51.464;-0.066;2024-03-07T07:45:31;102160.53;;;6.69;100.00
60355;BME280;46198;51.464;-0.066;2024-03-07T07:48:03;102164.91;;;6.70;100.00
60355;BME280;46198;51.464;-0.066;2024-03-07T07:50:32;102166.81;;;6.77;100.00
60355;BME280;46198;51.464;-0.066;2024-03-07T07:53:02;102168.34;;;6.80;100.00
60355;BME280;46198;51.464;-0.066;2024-03-07T07:55:35;102165.16;;;6.84;100.00
60355;BME280;46198;51.464;-0.066;2024-03-07T07:58:04;102156.03;;;6.85;100.00
60355;BME280;46198;51.464;-0.066;2024-03-07T08:00:32;102162.97;;;6.88;100.00
60355;BME280;46198;51.464;-0.066;2024-03-07T08:03:03;102153.56;;;6.92;100.00
60355;BME280;46198;51.464;-0.066;2024-03-07T08:05:34;102148.34;;;6.99;100.00
60355;BME280;46198;51.464;-0.066;2024-03-07T08:08:04;102145.16;;;7.03;100.00
60355;BME280;46198;51.464;-0.066;2024-03-07T08:10:36;102146.81;;;7.04;100.00
60355;BME280;46198;51.464;-0.066;2024-03-07T08:13:05;102140.75;;;7.10;100.00
60355;BME280;46198;51.464;-0.066;2024-03-07T08:15:35;102129.59;;;7.05;100.00
60355;BME280;46198;51.464;-0.066;2024-03-07T08:18:03;102136.38;;;7.09;100.00
60355;BME280;46198;51.464;-0.066;2024-03-07T08:20:36;102134.88;;;7.15;100.00
60355;BME280;46198;51.464;-0.066;2024-03-07T08:23:06;102126.63;;;7.17;100.00
60355;BME280;46198;51.464;-0.066;2024-03-07T08:25:37;102139.13;;;7.26;100.00
60355;BME280;46198;51.464;-0.066;2024-03-07T08:28:07;102125.59;;;7.26;100.00
60355;BME280;46198;51.464;-0.066;2024-03-07T08:30:36;102126.97;;;7.38;100.00
60355;BME280;46198;51.464;-0.066;2024-03-07T08:33:04;102123.63;;;7.44;100.00
60355;BME280;46198;51.464;-0.066;2024-03-07T08:35:33;102119.41;;;7.50;100.00
60355;BME280;46198;51.464;-0.066;2024-03-07T08:38:02;102116.00;;;7.56;100.00
60355;BME280;46198;51.464;-0.066;2024-03-07T08:40:32;102117.38;;;7.60;100.00
60355;BME280;46198;51.464;-0.066;2024-03-07T08:43:02;102105.69;;;7.60;100.00
60355;BME280;46198;51.464;-0.066;2024-03-07T08:45:31;102108.59;;;7.66;100.00
60355;BME280;46198;51.464;-0.066;2024-03-07T08:48:03;102113.50;;;7.71;100.00
60355;BME280;46198;51.464;-0.066;2024-03-07T08:50:33;102100.97;;;7.70;100.00
60355;BME280;46198;51.464;-0.066;2024-03-07T08:53:02;102103.84;;;7.76;100.00
60355;BME280;46198;51.464;-0.066;2024-03-07T08:55:31;102102.81;;;7.77;100.00
60355;BME280;46198;51.464;-0.066;2024-03-07T08:57:59;102097.25;;;7.87;100.00
60355;BME280;46198;51.464;-0.066;2024-03-07T09:00:29;102092.16;;;7.92;100.00
60355;BME280;46198;51.464;-0.066;2024-03-07T09:03:04;102101.63;;;7.96;100.00
60355;BME280;46198;51.464;-0.066;2024-03-07T09:05:37;102100.94;;;8.03;100.00
60355;BME280;46198;51.464;-0.066;2024-03-07T09:08:06;102092.25;;;8.24;100.00
60355;BME280;46198;51.464;-0.066;2024-03-07T09:10:34;102093.75;;;8.34;100.00
60355;BME280;46198;51.464;-0.066;2024-03-07T09:13:03;102091.06;;;8.42;100.00
60355;BME280;46198;51.464;-0.066;2024-03-07T09:15:34;102097.78;;;8.47;100.00
60355;BME280;46198;51.464;-0.066;2024-03-07T09:18:04;102088.50;;;8.41;100.00
60355;BME280;46198;51.464;-0.066;2024-03-07T09:20:33;102084.59;;;8.43;100.00
60355;BME280;46198;51.464;-0.066;2024-03-07T09:23:01;102088.31;;;8.51;100.00
60355;BME280;46198;51.464;-0.066;2024-03-07T09:25:29;102085.63;;;8.42;100.00
60355;BME280;46198;51.464;-0.066;2024-03-07T09:28:00;102091.69;;;8.53;100.00
60355;BME280;46198;51.464;-0.066;2024-03-07T09:30:28;102081.47;;;8.63;100.00
60355;BME280;46198;51.464;-0.066;2024-03-07T09:32:59;102076.66;;;8.50;100.00
60355;BME280;46198;51.464;-0.066;2024-03-07T09:35:28;102081.69;;;8.53;100.00
60355;BME280;46198;51.464;-0.066;2024-03-07T09:37:58;102078.91;;;8.70;100.00
60355;BME280;46198;51.464;-0.066;2024-03-07T09:40:27;102087.56;;;8.65;100.00
60355;BME280;46198;51.464;-0.066;2024-03-07T09:42:56;102080.59;;;8.71;100.00
60355;BME280;46198;51.464;-0.066;2024-03-07T09:45:29;102077.38;;;8.75;100.00
60355;BME280;46198;51.464;-0.066;2024-03-07T09:48:00;102079.88;;;8.85;100.00
60355;BME280;46198;51.464;-0.066;2024-03-07T09:50:29;102076.59;;;8.90;100.00
60355;BME280;46198;51.464;-0.066;2024-03-07T09:52:59;102072.16;;;8.97;100.00
60355;BME280;46198;51.464;-0.066;2024-03-07T09:55:28;102075.03;;;8.95;100.00
60355;BME280;46198;51.464;-0.066;2024-03-07T09:57:58;102077.59;;;8.97;100.00
60355;BME280;46198;51.464;-0.066;2024-03-07T10:00:27;102072.34;;;8.95;100.00
60355;BME280;46198;51.464;-0.066;2024-03-07T10:02:58;102075.28;;;8.85;100.00
60355;BME280;46198;51.464;-0.066;2024-03-07T10:05:29;102064.44;;;8.85;100.00
60355;BME280;46198;51.464;-0.066;2024-03-07T10:07:58;102070.44;;;9.04;100.00
60355;BME280;46198;51.464;-0.066;2024-03-07T10:10:27;102073.38;;;9.17;100.00
60355;BME280;46198;51.464;-0.066;2024-03-07T10:12:57;102071.78;;;9.31;100.00
60355;BME280;46198;51.464;-0.066;2024-03-07T10:15:28;102062.34;;;9.42;100.00
60355;BME280;46198;51.464;-0.066;2024-03-07T10:17:56;102071.13;;;9.44;100.00
60355;BME280;46198;51.464;-0.066;2024-03-07T10:20:25;102061.69;;;9.40;100.00
60355;BME280;46198;51.464;-0.066;2024-03-07T10:22:55;102063.31;;;9.49;100.00
60355;BME280;46198;51.464;-0.066;2024-03-07T10:25:24;102061.19;;;9.36;100.00
60355;BME280;46198;51.464;-0.066;2024-03-07T10:27:56;102057.84;;;9.34;100.00
60355;BME280;46198;51.464;-0.066;2024-03-07T10:30:26;102048.22;;;9.31;100.00
60355;BME280;46198;51.464;-0.066;2024-03-07T10:32:56;102050.16;;;9.23;100.00
60355;BME280;46198;51.464;-0.066;2024-03-07T10:35:27;102046.88;;;9.27;100.00
60355;BME280;46198;51.464;-0.066;2024-03-07T10:37:58;102045.50;;;9.31;100.00
60355;BME280;46198;51.464;-0.066;2024-03-07T10:40:28;102052.44;;;9.34;100.00
60355;BME280;46198;51.464;-0.066;2024-03-07T10:42:58;102052.44;;;9.34;100.00
60355;BME280;46198;51.464;-0.066;2024-03-07T10:45:33;102042.44;;;9.35;100.00
60355;BME280;46198;51.464;-0.066;2024-03-07T10:48:03;102041.63;;;9.49;100.00
60355;BME280;46198;51.464;-0.066;2024-03-07T10:50:43;102046.16;;;9.33;100.00
60355;BME280;46198;51.464;-0.066;2024-03-07T10:53:24;102034.97;;;9.37;100.00
60355;BME280;46198;51.464;-0.066;2024-03-07T10:56:11;102038.69;;;9.36;100.00
60355;BME280;46198;51.464;-0.066;2024-03-07T10:58:53;102036.63;;;9.38;100.00
60355;BME280;46198;51.464;-0.066;2024-03-07T11:01:26;102030.47;;;9.44;100.00
60355;BME280;46198;51.464;-0.066;2024-03-07T11:03:58;102038.91;;;9.49;100.00
60355;BME280;46198;51.464;-0.066;2024-03-07T11:06:28;102021.91;;;9.55;100.00
60355;BME280;46198;51.464;-0.066;2024-03-07T11:08:58;102023.22;;;9.59;100.00
60355;BME280;46198;51.464;-0.066;2024-03-07T11:11:26;102019.47;;;9.60;100.00
60355;BME280;46198;51.464;-0.066;2024-03-07T11:13:56;102011.94;;;9.70;100.00
60355;BME280;46198;51.464;-0.066;2024-03-07T11:16:26;102018.22;;;9.86;100.00
60355;BME280;46198;51.464;-0.066;2024-03-07T11:19:20;102009.22;;;9.70;100.00
60355;BME280;46198;51.464;-0.066;2024-03-07T11:21:54;102004.75;;;9.77;100.00
60355;BME280;46198;51.464;-0.066;2024-03-07T11:24:25;102007.09;;;9.81;100.00
60355;BME280;46198;51.464;-0.066;2024-03-07T11:26:55;102012.75;;;9.71;100.00
60355;BME280;46198;51.464;-0.066;2024-03-07T11:29:47;102002.03;;;9.77;100.00
60355;BME280;46198;51.464;-0.066;2024-03-07T11:32:21;101996.91;;;9.83;100.00
60355;BME280;46198;51.464;-0.066;2024-03-07T11:34:53;102004.66;;;9.86;100.00
60355;BME280;46198;51.464;-0.066;2024-03-07T11:37:38;101992.19;;;9.76;100.00
60355;BME280;46198;51.464;-0.066;2024-03-07T11:40:12;101997.16;;;9.88;100.00
60355;BME280;46198;51.464;-0.066;2024-03-07T11:42:47;101987.53;;;9.70;100.00
60355;BME280;46198;51.464;-0.066;2024-03-07T11:45:15;101991.06;;;9.71;100.00
60355;BME280;46198;51.464;-0.066;2024-03-07T11:47:52;101991.66;;;9.66;100.00
60355;BME280;46198;51.464;-0.066;2024-03-07T11:50:27;101981.13;;;9.63;100.00
60355;BME280;46198;51.464;-0.066;2024-03-07T11:52:56;101969.09;;;9.66;100.00
60355;BME280;46198;51.464;-0.066;2024-03-07T11:55:25;101972.47;;;9.83;100.00
60355;BME280;46198;51.464;-0.066;2024-03-07T11:57:55;101971.16;;;9.79;100.00
60355;BME280;46198;51.464;-0.066;2024-03-07T12:00:23;101971.25;;;9.70;100.00
60355;BME280;46198;51.464;-0.066;2024-03-07T12:03:01;101963.13;;;9.85;100.00
60355;BME280;46198;51.464;-0.066;2024-03-07T12:05:32;101944.03;;;9.93;100.00
60355;BME280;46198;51.464;-0.066;2024-03-07T12:08:04;101932.03;;;10.03;100.00
60355;BME280;46198;51.464;-0.066;2024-03-07T12:10:34;101938.91;;;10.20;100.00
60355;BME280;46198;51.464;-0.066;2024-03-07T12:13:03;101928.44;;;10.17;100.00
60355;BME280;46198;51.464;-0.066;2024-03-07T12:15:32;101922.19;;;10.16;100.00
60355;BME280;46198;51.464;-0.066;2024-03-07T12:18:02;101931.00;;;10.18;100.00
60355;BME280;46198;51.464;-0.066;2024-03-07T12:20:36;101922.44;;;10.36;100.00
60355;BME280;46198;51.464;-0.066;2024-03-07T12:23:05;101920.59;;;10.37;100.00
60355;BME280;46198;51.464;-0.066;2024-03-07T12:25:36;101913.59;;;10.49;100.00
60355;BME280;46198;51.464;-0.066;2024-03-07T12:28:05;101912.19;;;10.53;100.00
60355;BME280;46198;51.464;-0.066;2024-03-07T12:30:48;101914.28;;;10.36;100.00
60355;BME280;46198;51.464;-0.066;2024-03-07T12:33:21;101906.78;;;10.53;100.00
60355;BME280;46198;51.464;-0.066;2024-03-07T12:35:53;101900.03;;;10.49;100.00
60355;BME280;46198;51.464;-0.066;2024-03-07T12:38:28;101907.41;;;10.55;100.00
60355;BME280;46198;51.464;-0.066;2024-03-07T12:41:04;101893.81;;;10.55;100.00
60355;BME280;46198;51.464;-0.066;2024-03-07T12:43:34;101890.22;;;10.48;100.00
60355;BME280;46198;51.464;-0.066;2024-03-07T12:46:05;101885.88;;;10.54;100.00
60355;BME280;46198;51.464;-0.066;2024-03-07T12:48:35;101887.53;;;10.76;100.00
60355;BME280;46198;51.464;-0.066;2024-03-07T12:51:05;101885.66;;;10.77;100.00
60355;BME280;46198;51.464;-0.066;2024-03-07T12:53:34;101881.53;;;10.81;100.00
60355;BME280;46198;51.464;-0.066;2024-03-07T12:56:04;101872.34;;;10.82;100.00
60355;BME280;46198;51.464;-0.066;2024-03-07T12:58:32;101876.63;;;10.70;100.00
60355;BME280;46198;51.464;-0.066;2024-03-07T13:01:00;101869.06;;;10.65;100.00